createdAt,value
2023-04-24T00:01:46.182Z,7.80
2023-04-24T00:04:15.365Z,7.97
2023-04-24T00:06:43.785Z,8.15
2023-04-24T00:09:11.115Z,7.40
2023-04-24T00:11:37.847Z,8.07
2023-04-24T00:14:04.412Z,7.43
2023-04-24T00:16:30.881Z,6.97
2023-04-24T00:18:57.372Z,6.78
2023-04-24T00:21:26.560Z,7.63
2023-04-24T00:23:53.921Z,10.40
2023-04-24T00:26:21.006Z,10.57
2023-04-24T00:28:47.501Z,9.55
2023-04-24T00:31:14.055Z,9.13
2023-04-24T00:33:40.941Z,9.63
2023-04-24T00:36:08.003Z,8.82
2023-04-24T00:38:34.647Z,10.18
2023-04-24T00:41:01.142Z,9.52
2023-04-24T00:43:27.664Z,8.70
2023-04-24T00:45:54.283Z,9.63
2023-04-24T00:48:21.478Z,9.90
2023-04-24T00:50:47.967Z,8.68
2023-04-24T00:53:14.488Z,8.77
2023-04-24T00:55:41.199Z,8.60
2023-04-24T00:58:07.675Z,9.65
2023-04-24T01:00:34.466Z,7.85
2023-04-24T01:03:02.986Z,10.00
2023-04-24T01:05:29.929Z,8.75
2023-04-24T01:07:56.996Z,10.70
2023-04-24T01:10:24.275Z,10.07
2023-04-24T01:12:51.714Z,10.23
2023-04-24T01:15:18.855Z,8.07
2023-04-24T01:17:46.110Z,7.72
2023-04-24T01:20:13.810Z,7.30
2023-04-24T01:22:41.406Z,10.52
2023-04-24T01:25:08.442Z,7.72
2023-04-24T01:27:35.536Z,10.32
2023-04-24T01:30:02.429Z,7.78
2023-04-24T01:32:29.263Z,8.77
2023-04-24T01:34:56.602Z,9.48
2023-04-24T01:37:23.671Z,9.52
2023-04-24T01:39:50.550Z,8.18
2023-04-24T01:42:17.757Z,8.18
2023-04-24T01:44:44.863Z,9.60
2023-04-24T01:47:12.442Z,10.00
2023-04-24T01:49:40.136Z,9.48
2023-04-24T01:52:06.957Z,9.82
2023-04-24T01:54:34.153Z,9.45
2023-04-24T01:57:02.045Z,8.02
2023-04-24T01:59:29.087Z,11.10
2023-04-24T02:01:55.726Z,8.30
2023-04-24T02:04:22.738Z,8.00
2023-04-24T02:06:49.564Z,9.32
2023-04-24T02:09:17.019Z,8.07
2023-04-24T02:11:44.467Z,9.90
2023-04-24T02:14:11.111Z,7.53
2023-04-24T02:16:37.582Z,8.65
2023-04-24T02:19:04.542Z,8.95
2023-04-24T02:21:32.072Z,7.72
2023-04-24T02:23:58.699Z,8.13
2023-04-24T02:26:25.959Z,8.60
2023-04-24T02:28:52.660Z,8.10
2023-04-24T02:31:19.213Z,7.80
2023-04-24T02:33:45.814Z,10.63
2023-04-24T02:36:12.498Z,8.00
2023-04-24T02:38:39.074Z,9.55
2023-04-24T02:41:07.227Z,7.60
2023-04-24T02:43:34.397Z,7.53
2023-04-24T02:46:01.031Z,8.05
2023-04-24T02:48:27.458Z,10.30
2023-04-24T02:50:54.150Z,8.88
2023-04-24T02:53:20.652Z,10.15
2023-04-24T02:55:47.180Z,9.75
2023-04-24T02:58:14.127Z,8.95
2023-04-24T03:00:40.924Z,11.13
2023-04-24T03:03:08.302Z,8.75
2023-04-24T03:05:35.017Z,9.13
2023-04-24T03:08:01.743Z,8.40
2023-04-24T03:10:28.232Z,8.98
2023-04-24T03:12:56.041Z,9.27
2023-04-24T03:15:22.796Z,7.88
2023-04-24T03:17:49.283Z,7.00
2023-04-24T03:20:15.822Z,5.95
2023-04-24T03:22:42.254Z,4.85
2023-04-24T03:25:10.459Z,5.40
2023-04-24T03:27:37.147Z,4.72
2023-04-24T03:30:04.145Z,5.18
2023-04-24T03:32:31.350Z,5.45
2023-04-24T03:34:57.993Z,5.00
2023-04-24T03:37:24.489Z,5.35
2023-04-24T03:39:51.028Z,4.18
2023-04-24T03:42:17.556Z,3.42
2023-04-24T03:44:44.330Z,2.60
2023-04-24T03:47:11.053Z,3.83
2023-04-24T03:49:37.718Z,3.65
2023-04-24T03:52:04.270Z,2.60
2023-04-24T03:54:30.919Z,3.35
2023-04-24T03:56:57.476Z,2.40
2023-04-24T03:59:23.961Z,4.80
2023-04-24T04:01:51.183Z,2.60
2023-04-24T04:04:17.960Z,4.40
2023-04-24T04:06:45.206Z,2.40
2023-04-24T04:09:11.826Z,2.40
2023-04-24T04:11:38.318Z,4.75
2023-04-24T04:14:04.893Z,2.22
2023-04-24T04:16:31.391Z,4.40
2023-04-24T04:18:57.908Z,2.10
2023-04-24T04:21:24.480Z,3.35
2023-04-24T04:23:51.028Z,3.53
2023-04-24T04:26:17.447Z,1.98
2023-04-24T04:28:45.891Z,4.00
2023-04-24T04:31:13.865Z,3.63
2023-04-24T04:33:40.791Z,1.83
2023-04-24T04:36:07.560Z,3.08
2023-04-24T04:38:34.656Z,3.30
2023-04-24T04:41:01.619Z,1.92
2023-04-24T04:43:28.320Z,2.00
2023-04-24T04:45:55.909Z,2.00
2023-04-24T04:48:23.244Z,1.70
2023-04-24T04:50:49.723Z,2.40
2023-04-24T04:53:16.148Z,2.97
2023-04-24T04:55:42.904Z,2.83
2023-04-24T04:58:09.398Z,2.90
2023-04-24T05:00:38.398Z,1.70
2023-04-24T05:03:19.290Z,4.90
2023-04-24T05:05:47.945Z,2.33
2023-04-24T05:08:25.736Z,2.92
2023-04-24T05:10:54.246Z,2.40
2023-04-24T05:13:28.443Z,2.72
2023-04-24T05:15:59.216Z,2.72
2023-04-24T05:18:25.820Z,4.35
2023-04-24T05:20:52.268Z,2.28
2023-04-24T05:23:18.685Z,2.30
2023-04-24T05:25:45.395Z,2.95
2023-04-24T05:28:11.876Z,2.03
2023-04-24T05:30:38.435Z,2.88
2023-04-24T05:33:04.969Z,3.05
2023-04-24T05:35:31.436Z,2.78
2023-04-24T05:37:58.067Z,2.95
2023-04-24T05:40:24.690Z,2.63
2023-04-24T05:42:51.131Z,3.92
2023-04-24T05:45:18.732Z,2.22
2023-04-24T05:47:45.970Z,2.53
2023-04-24T05:50:12.841Z,2.47
2023-04-24T05:52:39.437Z,3.05
2023-04-24T05:55:06.419Z,1.33
2023-04-24T05:57:32.916Z,4.70
2023-04-24T05:59:59.428Z,2.20
2023-04-24T06:02:26.030Z,2.38
2023-04-24T06:04:52.918Z,2.28
2023-04-24T06:07:19.436Z,4.55
2023-04-24T06:09:45.966Z,2.15
2023-04-24T06:12:12.429Z,4.78
2023-04-24T06:14:38.977Z,1.30
2023-04-24T06:17:05.713Z,1.85
2023-04-24T06:19:32.124Z,6.15
2023-04-24T06:21:59.301Z,3.00
2023-04-24T06:24:29.482Z,1.73
2023-04-24T06:26:58.153Z,2.42
2023-04-24T06:29:24.725Z,3.03
2023-04-24T06:31:51.237Z,3.08
2023-04-24T06:34:17.707Z,5.18
2023-04-24T06:36:44.229Z,1.77
2023-04-24T06:39:10.857Z,1.58
2023-04-24T06:41:37.387Z,5.20
2023-04-24T06:44:03.809Z,1.95
2023-04-24T06:46:30.843Z,1.83
2023-04-24T06:48:57.411Z,16.52
2023-04-24T06:51:27.629Z,4.72
2023-04-24T06:53:54.617Z,2.75
2023-04-24T06:56:21.976Z,1.88
2023-04-24T06:58:49.012Z,2.08
2023-04-24T07:01:15.898Z,3.53
2023-04-24T07:03:43.285Z,3.72
2023-04-24T07:06:12.171Z,1.00
2023-04-24T07:08:38.688Z,2.45
2023-04-24T07:11:05.441Z,4.03
2023-04-24T07:13:31.840Z,1.88
2023-04-24T07:15:58.369Z,2.35
2023-04-24T07:18:25.059Z,3.10
2023-04-24T07:20:51.846Z,1.73
2023-04-24T07:23:18.969Z,1.65
2023-04-24T07:25:45.653Z,3.05
2023-04-24T07:28:12.167Z,2.22
2023-04-24T07:30:38.599Z,2.33
2023-04-24T07:33:05.103Z,1.88
2023-04-24T07:35:31.746Z,1.65
2023-04-24T07:37:58.579Z,2.42
2023-04-24T07:40:25.096Z,2.45
2023-04-24T07:42:51.804Z,1.00
2023-04-24T07:45:18.258Z,1.95
2023-04-24T07:47:46.564Z,2.22
2023-04-24T07:50:14.053Z,2.00
2023-04-24T07:52:40.563Z,1.20
2023-04-24T07:55:08.062Z,3.85
2023-04-24T07:57:34.762Z,3.42
2023-04-24T08:00:02.017Z,2.35
2023-04-24T08:02:28.953Z,3.20
2023-04-24T08:04:56.303Z,2.88
2023-04-24T08:07:24.584Z,2.25
2023-04-24T08:09:51.040Z,2.05
2023-04-24T08:12:17.459Z,4.07
2023-04-24T08:14:44.101Z,3.08
2023-04-24T08:17:10.948Z,2.72
2023-04-24T08:19:37.436Z,1.92
2023-04-24T08:22:05.164Z,4.00
2023-04-24T08:24:31.638Z,1.73
2023-04-24T08:26:58.947Z,1.30
2023-04-24T08:29:25.865Z,4.45
2023-04-24T08:31:52.597Z,2.45
2023-04-24T08:34:19.015Z,2.60
2023-04-24T08:36:47.552Z,2.05
2023-04-24T08:39:15.273Z,4.80
2023-04-24T08:41:44.282Z,3.80
2023-04-24T08:44:11.924Z,2.97
2023-04-24T08:46:38.537Z,4.40
2023-04-24T08:49:05.780Z,5.78
2023-04-24T08:51:32.271Z,3.13
2023-04-24T08:53:58.911Z,1.75
2023-04-24T08:56:25.738Z,2.13
2023-04-24T08:58:52.902Z,2.10
2023-04-24T09:01:21.013Z,1.40
2023-04-24T09:03:50.556Z,2.83
2023-04-24T09:06:18.846Z,1.92
2023-04-24T09:08:46.489Z,3.67
2023-04-24T09:11:13.207Z,1.55
2023-04-24T09:13:40.398Z,5.72
2023-04-24T09:16:07.239Z,3.45
2023-04-24T09:18:34.689Z,1.33
2023-04-24T09:21:03.663Z,2.67
2023-04-24T09:23:32.010Z,3.65
2023-04-24T09:26:01.095Z,1.45
2023-04-24T09:28:31.007Z,1.60
2023-04-24T09:31:24.195Z,2.65
2023-04-24T09:34:01.505Z,2.45
2023-04-24T09:36:38.080Z,2.78
2023-04-24T09:39:06.471Z,1.75
2023-04-24T09:41:33.817Z,0.90
2023-04-24T09:44:17.173Z,1.63
2023-04-24T09:46:45.770Z,1.85
2023-04-24T09:49:17.527Z,4.63
2023-04-24T09:51:44.605Z,3.30
2023-04-24T09:54:16.710Z,2.22
2023-04-24T09:56:45.609Z,1.75
2023-04-24T09:59:13.340Z,1.25
2023-04-24T10:01:43.012Z,3.00
2023-04-24T10:04:29.934Z,1.65
2023-04-24T10:06:57.560Z,1.40
2023-04-24T10:09:26.513Z,1.55
2023-04-24T10:11:54.718Z,2.78
2023-04-24T10:14:22.989Z,1.58
2023-04-24T10:16:50.459Z,1.80
2023-04-24T10:19:19.653Z,1.63
2023-04-24T10:21:49.599Z,2.28
2023-04-24T10:24:18.220Z,1.88
2023-04-24T10:26:46.184Z,1.13
2023-04-24T10:29:13.965Z,2.88
2023-04-24T10:31:41.148Z,1.17
2023-04-24T10:34:08.901Z,2.55
2023-04-24T10:36:36.690Z,1.63
2023-04-24T10:39:05.972Z,2.80
2023-04-24T10:41:32.378Z,4.60
2023-04-24T10:44:13.289Z,1.52
2023-04-24T10:46:44.341Z,1.33
2023-04-24T10:49:10.974Z,1.42
2023-04-24T10:51:49.057Z,0.80
2023-04-24T10:54:42.305Z,0.77
2023-04-24T10:57:21.741Z,3.75
2023-04-24T10:59:52.838Z,2.13
2023-04-24T11:02:19.761Z,1.77
2023-04-24T11:04:47.308Z,1.20
2023-04-24T11:07:14.094Z,1.50
2023-04-24T11:09:43.874Z,1.00
2023-04-24T11:12:11.952Z,1.05
2023-04-24T11:14:56.882Z,1.88
2023-04-24T11:17:35.071Z,2.08
2023-04-24T11:20:22.867Z,2.20
2023-04-24T11:22:55.680Z,1.95
2023-04-24T11:25:23.719Z,2.35
2023-04-24T11:27:51.174Z,1.55
2023-04-24T11:30:21.582Z,1.58
2023-04-24T11:32:54.340Z,1.42
2023-04-24T11:35:26.037Z,3.63
2023-04-24T11:38:18.777Z,2.65
2023-04-24T11:40:40.996Z,1.45
2023-04-24T11:43:08.500Z,1.77
2023-04-24T11:45:35.239Z,1.63
2023-04-24T11:48:04.065Z,2.75
2023-04-24T11:50:30.707Z,0.80
2023-04-24T11:52:57.667Z,1.38
2023-04-24T11:55:29.086Z,1.10
2023-04-24T11:58:00.171Z,2.88
2023-04-24T12:00:29.365Z,1.38
2023-04-24T12:03:10.098Z,2.83
2023-04-24T12:05:37.273Z,2.05
2023-04-24T12:08:04.031Z,2.80
2023-04-24T12:10:32.110Z,3.80
2023-04-24T12:12:59.337Z,4.00
2023-04-24T12:15:26.995Z,3.22
2023-04-24T12:17:54.844Z,1.60
2023-04-24T12:20:31.455Z,2.17
2023-04-24T12:22:59.827Z,2.40
2023-04-24T12:25:32.246Z,1.80
2023-04-24T12:28:04.887Z,1.25
2023-04-24T12:30:33.444Z,2.78
2023-04-24T12:33:01.346Z,2.13
2023-04-24T12:35:29.836Z,1.85
2023-04-24T12:37:56.386Z,1.15
2023-04-24T12:40:23.150Z,2.08
2023-04-24T12:42:51.668Z,2.95
2023-04-24T12:45:19.865Z,2.15
2023-04-24T12:47:47.172Z,5.95
2023-04-24T12:50:16.009Z,3.45
2023-04-24T12:52:43.061Z,3.80
2023-04-24T12:55:10.287Z,3.65
2023-04-24T12:57:38.952Z,5.00
2023-04-24T13:00:07.541Z,5.10
2023-04-24T13:02:35.336Z,3.63
2023-04-24T13:05:02.465Z,1.00
2023-04-24T13:07:29.115Z,3.92
2023-04-24T13:09:56.883Z,1.52
2023-04-24T13:12:27.837Z,3.55
2023-04-24T13:14:54.665Z,2.72
2023-04-24T13:17:21.483Z,3.72
2023-04-24T13:19:50.175Z,4.38
2023-04-24T13:22:16.811Z,3.05
2023-04-24T13:24:43.362Z,1.27
2023-04-24T13:27:10.678Z,4.15
2023-04-24T13:29:38.121Z,2.72
2023-04-24T13:32:04.713Z,1.20
2023-04-24T13:34:31.571Z,2.38
2023-04-24T13:36:59.442Z,1.85
2023-04-24T13:39:27.090Z,2.60
2023-04-24T13:41:54.360Z,5.78
2023-04-24T13:44:21.769Z,2.13
2023-04-24T13:46:49.581Z,3.05
2023-04-24T13:49:16.737Z,1.02
2023-04-24T13:51:44.006Z,2.35
2023-04-24T13:54:10.560Z,2.03
2023-04-24T13:56:36.995Z,1.98
2023-04-24T13:59:03.852Z,1.75
2023-04-24T14:01:30.484Z,2.55
2023-04-24T14:03:57.572Z,1.42
2023-04-24T14:06:24.602Z,1.60
2023-04-24T14:08:51.608Z,2.70
2023-04-24T14:11:18.775Z,2.10
2023-04-24T14:13:46.513Z,1.42
2023-04-24T14:16:14.046Z,1.65
2023-04-24T14:18:41.059Z,2.15
2023-04-24T14:21:07.839Z,1.33
2023-04-24T14:23:34.336Z,3.70
2023-04-24T14:26:00.930Z,0.90
2023-04-24T14:28:27.651Z,2.20
2023-04-24T14:30:54.406Z,1.58
2023-04-24T14:33:20.930Z,4.15
2023-04-24T14:35:47.458Z,3.05
2023-04-24T14:38:14.074Z,2.65
2023-04-24T14:43:10.759Z,4.07
2023-04-24T14:45:38.089Z,1.50
2023-04-24T14:48:04.803Z,2.95
2023-04-24T14:50:31.473Z,2.83
2023-04-24T14:53:02.963Z,2.15
2023-04-24T14:55:29.869Z,3.55
2023-04-24T14:57:56.567Z,1.77
2023-04-24T15:00:24.957Z,2.88
2023-04-24T15:02:51.826Z,4.70
2023-04-24T15:05:18.826Z,4.22
2023-04-24T15:07:46.401Z,2.15
2023-04-24T15:10:13.072Z,1.30
2023-04-24T15:12:39.953Z,1.40
2023-04-24T15:15:07.199Z,1.52
2023-04-24T15:17:33.752Z,3.65
2023-04-24T15:20:01.816Z,2.78
2023-04-24T15:22:28.574Z,2.35
2023-04-24T15:24:55.091Z,3.05
2023-04-24T15:27:21.593Z,2.10
2023-04-24T15:29:48.098Z,2.17
2023-04-24T15:32:14.604Z,1.30
2023-04-24T15:34:41.345Z,1.23
2023-04-24T15:37:07.881Z,2.67
2023-04-24T15:39:34.294Z,2.95
2023-04-24T15:42:01.640Z,2.47
2023-04-24T15:44:28.168Z,2.05
2023-04-24T15:46:56.261Z,1.45
2023-04-24T15:49:22.939Z,1.52
2023-04-24T15:51:49.441Z,2.22
2023-04-24T15:54:15.943Z,1.50
2023-04-24T15:56:42.655Z,1.92
2023-04-24T15:59:09.408Z,2.25
2023-04-24T16:01:36.026Z,2.40
2023-04-24T16:04:03.011Z,2.28
2023-04-24T16:06:29.603Z,2.22
2023-04-24T16:08:58.506Z,1.55
2023-04-24T16:11:26.321Z,1.52
2023-04-24T16:13:52.870Z,1.60
2023-04-24T16:16:19.457Z,1.65
2023-04-24T16:18:46.419Z,1.80
2023-04-24T16:21:13.202Z,1.38
2023-04-24T16:23:39.697Z,1.35
2023-04-24T16:26:06.234Z,1.25
2023-04-24T16:28:32.838Z,3.15
2023-04-24T16:30:59.650Z,2.03
2023-04-24T16:33:26.489Z,1.55
2023-04-24T16:35:53.245Z,7.68
2023-04-24T16:38:20.075Z,3.72
2023-04-24T16:40:46.528Z,3.80
2023-04-24T16:43:12.949Z,2.45
2023-04-24T16:45:39.461Z,2.70
2023-04-24T16:48:06.221Z,3.70
2023-04-24T16:50:33.161Z,2.65
2023-04-24T16:52:59.665Z,3.78
2023-04-24T16:55:26.394Z,10.13
2023-04-24T16:57:53.203Z,1.85
2023-04-24T17:00:19.949Z,3.47
2023-04-24T17:02:48.962Z,2.72
2023-04-24T17:05:15.849Z,4.30
2023-04-24T17:07:42.550Z,2.03
2023-04-24T17:10:09.463Z,2.17
2023-04-24T17:12:35.908Z,1.35
2023-04-24T17:15:02.564Z,1.40
2023-04-24T17:17:29.053Z,2.92
2023-04-24T17:19:55.564Z,1.88
2023-04-24T17:22:22.169Z,1.30
2023-04-24T17:24:48.661Z,1.88
2023-04-24T17:27:15.694Z,2.88
2023-04-24T17:29:42.466Z,2.08
2023-04-24T17:32:09.893Z,1.30
2023-04-24T17:34:36.462Z,2.17
2023-04-24T17:37:04.872Z,4.45
2023-04-24T17:39:31.366Z,1.92
2023-04-24T17:41:58.260Z,1.05
2023-04-24T17:44:25.087Z,2.20
2023-04-24T17:46:51.726Z,0.93
2023-04-24T17:49:18.286Z,1.65
2023-04-24T17:51:44.935Z,1.10
2023-04-24T17:54:12.314Z,0.70
2023-04-24T17:56:38.734Z,2.05
2023-04-24T17:59:05.246Z,1.52
2023-04-24T18:01:31.838Z,1.15
2023-04-24T18:03:58.562Z,2.72
2023-04-24T18:06:25.291Z,6.78
2023-04-24T18:08:51.749Z,2.25
2023-04-24T18:11:18.458Z,4.25
2023-04-24T18:13:46.572Z,8.40
2023-04-24T18:16:13.178Z,5.85
2023-04-24T18:18:39.815Z,5.78
2023-04-24T18:21:06.399Z,2.20
2023-04-24T18:23:33.066Z,5.82
2023-04-24T18:25:59.494Z,3.05
2023-04-24T18:28:25.964Z,2.45
2023-04-24T18:30:52.618Z,1.05
2023-04-24T18:33:19.092Z,2.00
2023-04-24T18:35:45.745Z,1.90
2023-04-24T18:38:12.295Z,1.20
2023-04-24T18:40:39.050Z,3.15
2023-04-24T18:43:06.306Z,1.15
2023-04-24T18:45:32.902Z,1.87
2023-04-24T18:47:59.430Z,1.30
2023-04-24T18:50:27.703Z,1.77
2023-04-24T18:52:54.273Z,1.50
2023-04-24T18:55:21.013Z,2.63
2023-04-24T18:57:47.824Z,1.13
2023-04-24T19:00:14.632Z,1.45
2023-04-24T19:02:41.423Z,2.53
2023-04-24T19:05:10.335Z,1.48
2023-04-24T19:07:36.952Z,1.27
2023-04-24T19:10:03.984Z,1.50
2023-04-24T19:12:30.618Z,1.37
2023-04-24T19:14:57.985Z,1.20
2023-04-24T19:17:25.519Z,1.08
2023-04-24T19:19:52.357Z,1.63
2023-04-24T19:22:20.498Z,1.47
2023-04-24T19:24:47.664Z,1.40
2023-04-24T19:27:14.436Z,1.20
2023-04-24T19:29:42.133Z,1.10
2023-04-24T19:32:09.015Z,1.50
2023-04-24T19:34:36.725Z,1.95
2023-04-24T19:37:04.666Z,1.50
2023-04-24T19:39:32.437Z,2.63
2023-04-24T19:42:00.305Z,1.38
2023-04-24T19:44:26.893Z,1.50
2023-04-24T19:46:53.572Z,2.40
2023-04-24T19:49:20.041Z,2.10
2023-04-24T19:51:46.564Z,1.42
2023-04-24T19:54:13.930Z,1.43
2023-04-24T19:56:40.537Z,1.30
2023-04-24T19:59:07.734Z,1.20
2023-04-24T20:01:34.319Z,1.50
2023-04-24T20:04:01.999Z,1.40
2023-04-24T20:06:29.646Z,1.63
2023-04-24T20:08:56.644Z,2.33
2023-04-24T20:11:23.197Z,1.93
2023-04-24T20:13:49.807Z,1.77
2023-04-24T20:16:16.678Z,2.60
2023-04-24T20:18:43.440Z,1.97
2023-04-24T20:21:09.889Z,1.70
2023-04-24T20:23:37.460Z,1.70
2023-04-24T20:26:04.983Z,2.17
2023-04-24T20:28:31.618Z,2.83
2023-04-24T20:30:59.036Z,2.10
2023-04-24T20:33:28.022Z,2.70
2023-04-24T20:35:54.654Z,2.13
2023-04-24T20:38:22.585Z,2.43
2023-04-24T20:40:57.629Z,2.53
2023-04-24T20:43:28.368Z,2.87
2023-04-24T20:45:56.381Z,4.10
2023-04-24T20:48:23.094Z,6.00
2023-04-24T20:50:50.188Z,2.90
2023-04-24T20:53:16.705Z,2.60
2023-04-24T20:55:43.282Z,3.17
2023-04-24T20:58:09.993Z,3.63
2023-04-24T21:00:36.474Z,2.73
2023-04-24T21:03:03.305Z,3.97
2023-04-24T21:05:29.872Z,5.00
2023-04-24T21:07:56.502Z,2.87
2023-04-24T21:10:24.187Z,3.23
2023-04-24T21:12:51.121Z,3.17
2023-04-24T21:15:18.162Z,3.93
2023-04-24T21:17:44.936Z,2.97
2023-04-24T21:20:11.753Z,3.53
2023-04-24T21:22:38.224Z,4.00
2023-04-24T21:25:05.368Z,4.27
2023-04-24T21:27:32.249Z,3.43
2023-04-24T21:29:58.761Z,4.23
2023-04-24T21:32:25.400Z,5.13
2023-04-24T21:34:52.294Z,4.80
2023-04-24T21:37:18.845Z,5.00
2023-04-24T21:39:45.414Z,7.03
2023-04-24T21:42:11.979Z,3.27
2023-04-24T21:44:38.623Z,4.80
2023-04-24T21:47:05.674Z,6.77
2023-04-24T21:49:32.136Z,3.70
2023-04-24T21:51:58.694Z,4.83
2023-04-24T21:54:25.253Z,4.53
2023-04-24T21:56:51.794Z,4.07
2023-04-24T21:59:18.419Z,4.50
2023-04-24T22:01:44.935Z,3.87
2023-04-24T22:04:11.872Z,5.13
2023-04-24T22:06:38.855Z,6.97
2023-04-24T22:09:05.921Z,5.67
2023-04-24T22:11:32.533Z,4.60
2023-04-24T22:13:59.209Z,4.13
2023-04-24T22:16:25.793Z,4.17
2023-04-24T22:18:55.589Z,3.70
2023-04-24T22:21:22.843Z,6.90
2023-04-24T22:23:49.655Z,7.70
2023-04-24T22:26:16.715Z,6.57
2023-04-24T22:28:43.150Z,4.67
2023-04-24T22:31:10.025Z,5.63
2023-04-24T22:33:36.678Z,5.43
2023-04-24T22:36:03.394Z,6.67
2023-04-24T22:38:29.814Z,6.57
2023-04-24T22:40:56.380Z,5.93
2023-04-24T22:43:22.872Z,7.50
2023-04-24T22:45:49.343Z,7.10
2023-04-24T22:48:16.389Z,6.83
2023-04-24T22:50:42.814Z,5.60
2023-04-24T22:53:09.369Z,5.37
2023-04-24T22:55:36.740Z,6.40
2023-04-24T22:58:03.204Z,7.23
2023-04-24T23:00:29.715Z,6.63
2023-04-24T23:02:56.244Z,5.07
2023-04-24T23:05:25.085Z,6.53
2023-04-24T23:07:51.920Z,6.93
2023-04-24T23:10:18.604Z,6.27
2023-04-24T23:12:45.083Z,5.87
2023-04-24T23:15:12.288Z,6.63
2023-04-24T23:17:39.087Z,6.90
2023-04-24T23:20:06.347Z,9.63
2023-04-24T23:22:33.667Z,5.67
2023-04-24T23:25:01.517Z,5.67
2023-04-24T23:27:28.895Z,6.63
2023-04-24T23:29:55.605Z,6.73
2023-04-24T23:32:22.492Z,5.90
2023-04-24T23:34:49.452Z,7.27
2023-04-24T23:37:19.093Z,8.67
2023-04-24T23:39:45.928Z,6.57
2023-04-24T23:42:12.681Z,6.13
2023-04-24T23:44:39.277Z,6.87
2023-04-24T23:47:05.868Z,7.63
2023-04-24T23:49:32.842Z,7.33
2023-04-24T23:51:59.301Z,7.40
2023-04-24T23:54:26.391Z,7.27
2023-04-24T23:56:52.821Z,6.77
2023-04-24T23:59:22.555Z,6.80
